Alvord, Iowa
Current Conditions -  °F | °C
As of 2:15 PM on Sunday 25 Jan 2015 (Local Time) from KLYV Reporting Station
Overcast Overcast  
Wind Chill: 29°   Ceiling: 800
Heat Index: 34°   Visibility: 10mi
Dew Point: 32°   Wind: 6mph
Humidity: 93%   Direction: 360°N
Pressure: 30.02"   Gusts: NA
Location:  43.34°N, 96.3°W
Report Text: KLYV 252015Z AUTO 36005KT 10SM OVC008 01/00 A3002 RMK AO2
Loading
Personal Weather Stations






























Interactive Weather Map New forecast layout! Learn more

10-Day Weather Forecast

Advertisements
Track Severe Weather on mobile